Flight Track Log - Related Links

Times and Time Zones

All times are in EDT time to prevent confusion due to time zone crossing. See the PDT4236 flight status page for this flight to view local times or setup timezone preferences in your user account.

Time Position Orientation Groundspeed Altitude Reporting Facility
EDT Latitude Longitude Course Direction KTS MPH feet Rate Location/Type
Thu 04:03:27 PM 38.2883 -82.5844 166° South 186 214 5,000  Level Indianapolis Center
Thu 04:04:00 PM 38.1338 -82.5024 174° South  Level FlightAware
Thu 04:04:29 PM 38.2481 -82.5975 194° South 158 182 6,500  Level Indianapolis Center
Thu 04:05:00 PM 38.0759 -82.4883 167° South  Level FlightAware
Thu 04:05:31 PM 38.2058 -82.6139 197° South 167 192 7,700  Level Indianapolis Center
Thu 04:06:00 PM 38.0183 -82.4719 167° South  Level FlightAware
Thu 04:06:33 PM 38.1569 -82.6158 182° South 174 200 9,600  Level Indianapolis Center
Thu 04:07:00 PM 37.9554 -82.4611 171° South  Level FlightAware
Thu 04:07:35 PM 38.1114 -82.6036 168° South 166 191 10,900  Level Indianapolis Center
Thu 04:08:37 PM 38.0536 -82.5881 168° South 178 205 12,500 1,355 Climbing Indianapolis Center
Thu 04:09:39 PM 38.0031 -82.5733 167° South 183 211 13,700 1,065 Climbing Indianapolis Center
Thu 04:10:41 PM 37.9536 -82.5581 166° South 182 209 14,700 677 Climbing Indianapolis Center
Thu 04:11:43 PM 37.9008 -82.5439 168° South 191 220 15,100 192 Climbing Indianapolis Center
Thu 04:12:46 PM 37.8378 -82.5247 167° South 224 258 15,100 240 Level Indianapolis Center
Thu 04:13:48 PM 37.7783 -82.4961 159° South 229 264 15,600 629 Climbing Indianapolis Center
Thu 04:14:50 PM 37.7186 -82.4331 140° Southeast 236 272 16,400 629 Climbing Indianapolis Center
Thu 04:15:52 PM 37.6700 -82.3828 141° Southeast 228 262 16,900 339 Climbing Indianapolis Center
Thu 04:16:54 PM 37.6194 -82.3306 141° Southeast 234 269 17,100 97 Climbing Indianapolis Center
Thu 04:17:56 PM 37.5636 -82.2781 143° Southeast 248 285 17,100 -48 Level Indianapolis Center
Thu 04:18:58 PM 37.5069 -82.2233 143° Southeast 255 293 17,000 -48 Descending Indianapolis Center
Thu 04:20:00 PM 37.4436 -82.1747 149° Southeast 263 303 17,000  Level Indianapolis Center
Thu 04:21:02 PM 37.3689 -82.1194 150° Southeast 264 304 17,000  Level Indianapolis Center
Thu 04:22:04 PM 37.3011 -82.0828 157° South 265 305 17,000  Level Indianapolis Center
Thu 04:23:06 PM 37.2325 -82.0469 157° South 268 308 17,000  Level Indianapolis Center
Thu 04:24:08 PM 37.1714 -81.9894 143° Southeast 274 315 17,000 48 Level Indianapolis Center
Thu 04:25:10 PM 37.1139 -81.9250 138° Southeast 276 318 17,100  Climbing Indianapolis Center
Thu 04:26:12 PM 37.0561 -81.8631 139° Southeast 272 313 17,000 -48 Descending Indianapolis Center
Thu 04:27:14 PM 36.9783 -81.8175 155° Southeast 263 303 17,000 -339 Level Indianapolis Center
Thu 04:28:16 PM 36.9033 -81.8167 179° South 265 305 16,300 -706 Descending Indianapolis Center
Thu 04:28:56 PM 36.8492 -81.8078 173° South 276 318 15,800 -780 Descending Atlanta Center
Thu 04:29:56 PM 36.7697 -81.7869 168° South 283 326 15,000 -650 Descending Atlanta Center
Thu 04:30:56 PM 36.6900 -81.7711 171° South 295 339 14,500 -500 Descending Atlanta Center
Thu 04:31:56 PM 36.6106 -81.7578 172° South 295 339 14,000 -500 Descending Atlanta Center
Thu 04:32:56 PM 36.5331 -81.7444 172° South 295 339 13,500 -500 Descending Atlanta Center
Thu 04:33:56 PM 36.4558 -81.7311 172° South 290 334 13,000 -500 Descending Atlanta Center
Thu 04:34:56 PM 36.3783 -81.7178 172° South 290 334 12,500 -500 Descending Atlanta Center
Thu 04:35:56 PM 36.2989 -81.7047 172° South 290 334 12,000 -550 Descending Atlanta Center
Thu 04:36:56 PM 36.2236 -81.6914 172° South 290 334 11,400 -500 Descending Atlanta Center
Thu 04:37:56 PM 36.1525 -81.6808 173° South 290 334 11,000 -450 Descending Atlanta Center
Thu 04:38:56 PM 36.0792 -81.6675 172° South 283 326 10,500 -500 Descending Atlanta Center
Thu 04:39:56 PM 36.0017 -81.6569 174° South 278 320 10,000 -500 Descending Atlanta Center
Thu 04:40:56 PM 35.9264 -81.6436 172° South 278 320 9,500 -535 Descending Atlanta Center
Thu 04:41:37 PM 35.8636 -81.6275 168° South 280 322 9,100 -500 Descending Atlanta Center
Thu 04:41:56 PM 35.8508 -81.6203 155° Southeast 278 320 9,000 -82 Descending Atlanta Center
Thu 04:42:50 PM 35.7733 -81.6072 172° South 265 305 9,000  Level Atlanta Center
Thu 04:43:51 PM 35.7044 -81.6042 178° South 254 292 9,000  Level Atlanta Center
Thu 04:44:56 PM 35.6369 -81.5678 156° South 261 300 9,000  Level Atlanta Center
Thu 04:45:53 PM 35.5717 -81.5264 153° Southeast 267 307 9,000 -500 Level Atlanta Center
Thu 04:46:56 PM 35.5569 -81.4325 101° East 277 319 8,000 -983 Descending Atlanta Center
Thu 04:47:49 PM 35.5614 -81.3481 86° East 283 326 7,100 -500 Descending Atlanta Center
Thu 04:48:56 PM 35.5675 -81.2406 86° East 268 308 7,000 -49 Descending Atlanta Center
Thu 04:49:51 PM 35.5489 -81.1544 105° East 276 318 7,000  Level Atlanta Center
Thu 04:49:56 PM 35.5489 -81.1544 105° East 272 313 7,000  Level Atlanta Center
Thu 04:50:56 PM 35.5300 -81.0708 105° East 266 306 7,000 -439 Level Atlanta Center
Thu 04:51:59 PM 35.4950 -81.0058 123° Southeast 204 235 6,100 -968 Descending Atlanta Center
Thu 04:53:00 PM 35.4425 -80.9872 164° South 195 224 5,000 -1,082 Descending Atlanta Center
Thu 04:54:01 PM 35.3881 -80.9842 177° South 192 221 3,900 -1,082 Descending Atlanta Center

Login

Don't have an account? Register now (free) for customized features, flight alerts, and more!